Evening Tide — WY9441 — position and weather

sailwx.info

Track history (hours):
 
Tides and Currents Weather Stations Pressure Air Temp Water Temp Dewpoint Dewpoint Depression Visibility Wind Speed Wind Dir Waves Ship Positions

Evening Tide

Owner: TUG EVENING TIDE CORP, MELVILLE, NY. More information available from US FCC via Universal Licensing System and Coast Guard Vessel Documentation Center.

Last reported at 2017-Dec-11 17:00 UTC. Time now 2017-Dec-13 14:56 UTC.
Position N 40°40' W 074°02'.

Length 43 m; draft 5 m.

Type: Towing. MMSI: 367006620.

Date/timePositionNaut miles runAvg speedWind from/ knotsBaromVisibWave heightAir tempDewpointWater temp
2017-Dec-11 17:00N 40°40' W 074°02'0 0.1
2017-Dec-11 16:30N 40°40' W 074°02'0 0.0
2017-Dec-11 16:00N 40°40' W 074°02'0 0.0
2017-Dec-11 15:31N 40°40' W 074°02'0 0.0
2017-Dec-11 15:00N 40°40' W 074°02'0 0.0
2017-Dec-11 14:30N 40°40' W 074°02'0 0.0
2017-Dec-11 14:00N 40°40' W 074°02'0 0.0
2017-Dec-11 13:30N 40°40' W 074°02'0 0.0
2017-Dec-11 13:00N 40°40' W 074°02'0 0.0
2017-Dec-11 12:30N 40°40' W 074°02'0 0.0
2017-Dec-11 12:00N 40°40' W 074°02'0 0.1
2017-Dec-11 11:30N 40°40' W 074°02'0 0.0
2017-Dec-11 11:00N 40°40' W 074°02'0 0.1
2017-Dec-11 10:30N 40°40' W 074°02'0 0.0
2017-Dec-11 10:00N 40°40' W 074°02'0 0.0
2017-Dec-11 09:30N 40°40' W 074°02'0 0.0
2017-Dec-11 09:00N 40°40' W 074°02'0 0.0
2017-Dec-11 08:30N 40°40' W 074°02'0 0.0
2017-Dec-11 08:00N 40°40' W 074°02'0 0.0
2017-Dec-11 07:30N 40°40' W 074°02'0 0.0
2017-Dec-11 07:00N 40°40' W 074°02'0 0.0
2017-Dec-11 06:30N 40°40' W 074°02'0 0.0
2017-Dec-11 06:00N 40°40' W 074°02'0 0.1
2017-Dec-11 05:30N 40°40' W 074°02'1 2.1
2017-Dec-11 05:00N 40°41' W 074°02'4 8.9
2017-Dec-11 04:30N 40°45' W 074°01'5 9.1
2017-Dec-11 04:00N 40°49' W 073°58'5 9.7
2017-Dec-11 03:30N 40°54' W 073°55'4 0.1
2017-Dec-09 01:45N 40°58' W 073°54'1 5.0
2017-Dec-09 01:29N 40°57' W 073°54'2 4.7
2017-Dec-09 01:00N 40°54' W 073°55'2 4.1
2017-Dec-09 00:30N 40°52' W 073°56'2 3.8
2017-Dec-09 00:00N 40°51' W 073°57'2 3.7
2017-Dec-08 23:30N 40°49' W 073°58'2 3.7
2017-Dec-08 23:00N 40°47' W 073°59'2 4.0
2017-Dec-08 22:30N 40°46' W 074°01'2 4.6
2017-Dec-08 22:00N 40°43' W 074°01'2 4.9
2017-Dec-08 21:30N 40°41' W 074°02'3 5.2
2017-Dec-08 21:00N 40°39' W 074°04'4 7.7
2017-Dec-08 20:30N 40°39' W 074°09'3 5.1
2017-Dec-08 20:00N 40°38' W 074°12'2 4.4
2017-Dec-08 19:30N 40°35' W 074°12'0 0.5
2017-Dec-08 18:55N 40°35' W 074°13'1 2.7
2017-Dec-08 18:29N 40°36' W 074°12'3 6.6
2017-Dec-08 18:00N 40°39' W 074°09'4 8.2
2017-Dec-08 17:30N 40°39' W 074°04'1 2.7
2017-Dec-08 17:00N 40°39' W 074°02'3 5.6
2017-Dec-08 16:30N 40°41' W 074°00'0 0.0
2017-Dec-08 16:00N 40°41' W 074°00'4 7.5
2017-Dec-08 15:30N 40°39' W 074°04'2 4.9
2017-Dec-08 15:00N 40°39' W 074°07'0 0.0
2017-Dec-08 14:29N 40°39' W 074°07'0 0.0
2017-Dec-08 14:00N 40°39' W 074°07'0 0.0
2017-Dec-08 13:30N 40°39' W 074°07'0 0.0
2017-Dec-08 13:00N 40°39' W 074°07'0 1.0
2017-Dec-08 12:30N 40°39' W 074°08'4 7.1
2017-Dec-08 11:59N 40°37' W 074°12'2 4.4
2017-Dec-08 11:30N 40°35' W 074°13'0 0.0
2017-Dec-08 10:58N 40°35' W 074°13'0 0.1
2017-Dec-08 07:07N 40°35' W 074°12'0 1.7
2017-Dec-08 07:00N 40°36' W 074°12'2 4.1
2017-Dec-08 06:30N 40°38' W 074°12'0 0.6
2017-Dec-08 06:00N 40°38' W 074°12'2 3.6
2017-Dec-08 05:20N 40°35' W 074°12'0 0.0
2017-Dec-08 04:55N 40°35' W 074°12'0 0.0
2017-Dec-08 03:39N 40°35' W 074°12'0 0.0
2017-Dec-08 03:25N 40°35' W 074°12'0 0.0
2017-Dec-08 03:00N 40°35' W 074°12'0 0.0
2017-Dec-08 02:06N 40°35' W 074°12'0 0.1
2017-Dec-08 01:58N 40°35' W 074°12'0 0.0
2017-Dec-08 01:30N 40°35' W 074°12'0 0.0
2017-Dec-08 01:00N 40°35' W 074°12'0 0.0
2017-Dec-08 00:27N 40°35' W 074°12'0 0.2
2017-Dec-07 23:52N 40°36' W 074°12'3 8.4
2017-Dec-07 23:30N 40°38' W 074°11'4 7.1
2017-Dec-07 23:00N 40°39' W 074°07'0 0.0
2017-Dec-07 22:30N 40°39' W 074°07'3 5.6
2017-Dec-07 22:00N 40°39' W 074°10'4 7.4
2017-Dec-07 21:27N 40°35' W 074°12'3 6.8
2017-Dec-07 21:00N 40°33' W 074°15'1 1.4
2017-Dec-07 20:05N 40°34' W 074°14'0 4.4
2017-Dec-07 19:58N 40°33' W 074°13'3 6.3
2017-Dec-07 19:30N 40°36' W 074°12'3 6.7
2017-Dec-07 19:00N 40°39' W 074°09'2 3.4
2017-Dec-07 18:29N 40°39' W 074°07'1 2.5
2017-Dec-07 18:00N 40°39' W 074°05'1 1.4
2017-Dec-07 17:30N 40°39' W 074°06'3 6.0
2017-Dec-07 17:00N 40°39' W 074°10'4 7.4
2017-Dec-07 16:30N 40°36' W 074°12'0 0.0
2017-Dec-07 12:25N 40°35' W 074°12'0 0.0
2017-Dec-07 12:00N 40°35' W 074°12'0 0.0
2017-Dec-07 11:30N 40°35' W 074°12'0 0.0
2017-Dec-07 10:59N 40°35' W 074°12'0 0.0
2017-Dec-07 10:30N 40°35' W 074°12'0 0.0
2017-Dec-07 09:59N 40°35' W 074°12'0 0.0
2017-Dec-07 09:30N 40°35' W 074°12'0 0.0
2017-Dec-07 08:59N 40°35' W 074°12'0 0.0
2017-Dec-07 08:30N 40°35' W 074°12'0 0.0
2017-Dec-07 08:00N 40°35' W 074°12'0 0.0
2017-Dec-07 07:30N 40°35' W 074°12'0 0.0
2017-Dec-07 07:00N 40°35' W 074°12'0 0.0
2017-Dec-07 06:30N 40°35' W 074°12'0 0.0
2017-Dec-07 05:58N 40°35' W 074°12'0 0.0
2017-Dec-07 05:22N 40°35' W 074°12'0 0.0
2017-Dec-07 05:00N 40°35' W 074°12'0 0.0
2017-Dec-07 04:30N 40°35' W 074°12'0 0.0
2017-Dec-07 04:00N 40°35' W 074°12'1 1.1
2017-Dec-07 03:27N 40°35' W 074°13'3 6.5
2017-Dec-07 02:59N 40°33' W 074°15'0 0.2
2017-Dec-07 02:28N 40°33' W 074°15'3 5.6
2017-Dec-07 01:59N 40°34' W 074°13'1 0.2
2017-Dec-06 21:12N 40°35' W 074°13'0 0.1
2017-Dec-06 21:00N 40°35' W 074°12'  
2017-Dec-04 10:31N 40°39' W 074°02'0 0.0
2017-Dec-04 10:00N 40°39' W 074°03'0 0.0
2017-Dec-04 09:30N 40°39' W 074°03'0 0.2
2017-Dec-04 09:01N 40°39' W 074°03'0 0.1
2017-Dec-04 08:30N 40°39' W 074°03'0 0.0
2017-Dec-04 08:00N 40°39' W 074°03'0 0.0
2017-Dec-04 07:31N 40°39' W 074°03'0 0.0
2017-Dec-04 07:00N 40°39' W 074°03'0 0.0
2017-Dec-04 06:30N 40°39' W 074°03'0 0.0
2017-Dec-04 06:00N 40°39' W 074°03'0 0.0
2017-Dec-04 05:30N 40°39' W 074°03'0 0.0
2017-Dec-04 05:00N 40°39' W 074°03'0 0.0
2017-Dec-04 04:30N 40°39' W 074°03'0 0.0
2017-Dec-04 04:00N 40°39' W 074°03'0 0.1
2017-Dec-04 03:30N 40°39' W 074°03'0 0.0
2017-Dec-04 03:00N 40°39' W 074°03'0 0.0
2017-Dec-04 02:30N 40°39' W 074°03'0 0.2
2017-Dec-04 02:00N 40°39' W 074°03'0 0.0
2017-Dec-04 01:30N 40°39' W 074°03'0 0.0
2017-Dec-04 01:00N 40°39' W 074°03'0 0.0
2017-Dec-04 00:30N 40°39' W 074°03'0 0.1
2017-Dec-04 00:00N 40°39' W 074°03'0 0.0
2017-Dec-03 23:30N 40°39' W 074°03'0 0.0
2017-Dec-03 23:01N 40°39' W 074°03'0 0.0
2017-Dec-03 22:30N 40°39' W 074°03'0 0.0
2017-Dec-03 22:00N 40°39' W 074°03'0 0.1
2017-Dec-03 21:30N 40°39' W 074°03'0 0.1
2017-Dec-03 21:01N 40°39' W 074°03'0 0.0
2017-Dec-03 20:30N 40°39' W 074°03'0 0.0
2017-Dec-03 20:00N 40°39' W 074°03'0 0.0
2017-Dec-03 19:30N 40°39' W 074°03'0 0.0
2017-Dec-03 19:00N 40°39' W 074°03'0 0.0
2017-Dec-03 18:30N 40°39' W 074°03'0 0.0
2017-Dec-03 18:00N 40°39' W 074°03'0 0.0
2017-Dec-03 17:30N 40°39' W 074°03'0 0.0
2017-Dec-03 17:00N 40°39' W 074°03'0 0.0
2017-Dec-03 16:31N 40°39' W 074°03'0 0.1
2017-Dec-03 16:00N 40°39' W 074°03'0 0.0
2017-Dec-03 15:30N 40°39' W 074°03'0 0.0
2017-Dec-03 15:00N 40°39' W 074°03'0 0.0
2017-Dec-03 14:30N 40°39' W 074°03'0 0.1
2017-Dec-03 14:00N 40°39' W 074°03'0 0.1
2017-Dec-03 13:30N 40°39' W 074°03'0 0.1
2017-Dec-03 13:00N 40°39' W 074°03'0 0.1
2017-Dec-03 12:30N 40°39' W 074°03'0 0.0
2017-Dec-03 12:00N 40°39' W 074°03'0 0.0
2017-Dec-03 11:30N 40°39' W 074°03'0 0.0
2017-Dec-03 11:00N 40°39' W 074°03'0 0.1
2017-Dec-03 10:30N 40°39' W 074°03'0 0.0
2017-Dec-03 10:00N 40°39' W 074°03'0 0.0
2017-Dec-03 09:30N 40°39' W 074°03'0 0.0
2017-Dec-03 09:00N 40°39' W 074°03'0 0.1
2017-Dec-03 08:30N 40°39' W 074°03'0 0.2
2017-Dec-03 08:00N 40°39' W 074°03'0 0.1
2017-Dec-03 07:30N 40°39' W 074°03'0 0.0
2017-Dec-03 07:00N 40°39' W 074°03'0 0.0
2017-Dec-03 06:30N 40°39' W 074°03'0 0.0
2017-Dec-03 06:00N 40°39' W 074°03'0 0.0
2017-Dec-03 05:30N 40°39' W 074°03'0 0.0
2017-Dec-03 05:00N 40°39' W 074°03'0 0.0
2017-Dec-03 04:30N 40°39' W 074°03'0 0.0
2017-Dec-03 04:00N 40°39' W 074°03'0 0.1
2017-Dec-03 03:30N 40°39' W 074°03'0 0.0
2017-Dec-03 03:00N 40°39' W 074°03'0 0.0
2017-Dec-03 02:30N 40°39' W 074°03'0 0.1
2017-Dec-03 02:00N 40°39' W 074°03'0 0.1
2017-Dec-03 01:30N 40°39' W 074°03'0 0.0
2017-Dec-03 01:00N 40°39' W 074°03'0 0.0
2017-Dec-03 00:30N 40°39' W 074°03'0 0.0
2017-Dec-03 00:00N 40°39' W 074°03'0 0.0
2017-Dec-02 23:30N 40°39' W 074°03'0 0.0
2017-Dec-02 23:00N 40°39' W 074°03'0 0.0
2017-Dec-02 22:30N 40°39' W 074°03'0 0.0
2017-Dec-02 22:00N 40°39' W 074°03'0 0.0
2017-Dec-02 21:30N 40°39' W 074°02'0 0.0
2017-Dec-02 21:00N 40°39' W 074°03'0 0.0
2017-Dec-02 20:30N 40°39' W 074°03'0 0.2
2017-Dec-02 20:00N 40°39' W 074°03'0 0.0
2017-Dec-02 19:30N 40°39' W 074°03'0 0.0
2017-Dec-02 19:00N 40°39' W 074°03'0 0.0
2017-Dec-02 18:30N 40°39' W 074°03'0 0.0
2017-Dec-02 18:01N 40°39' W 074°03'0 0.0
2017-Dec-02 17:30N 40°39' W 074°03'0 0.0
2017-Dec-02 17:00N 40°39' W 074°03'0 0.0
2017-Dec-02 16:30N 40°39' W 074°03'0 0.0
2017-Dec-02 16:00N 40°39' W 074°03'0 0.0
2017-Dec-02 15:30N 40°39' W 074°03'0 0.0
2017-Dec-02 15:00N 40°39' W 074°03'0 0.0
2017-Dec-02 14:30N 40°39' W 074°03'0 0.0
2017-Dec-02 14:00N 40°39' W 074°03'0 0.0
2017-Dec-02 13:30N 40°39' W 074°03'0 0.1
2017-Dec-02 13:00N 40°39' W 074°03'0 0.1
2017-Dec-02 12:31N 40°39' W 074°03'0 0.0
2017-Dec-02 12:00N 40°39' W 074°03'0 0.0
2017-Dec-02 11:31N 40°39' W 074°03'0 0.0
2017-Dec-02 11:00N 40°39' W 074°03'0 0.0
2017-Dec-02 10:31N 40°39' W 074°03'0 0.0
2017-Dec-02 10:01N 40°39' W 074°03'0 0.0
2017-Dec-02 09:31N 40°39' W 074°03'0 0.0
2017-Dec-02 09:00N 40°39' W 074°02'0 0.0
2017-Dec-02 08:31N 40°39' W 074°02'0 0.1
2017-Dec-02 08:01N 40°39' W 074°03'0 0.1
2017-Dec-02 07:31N 40°39' W 074°03'0 0.1
2017-Dec-02 07:01N 40°39' W 074°03'0 0.0
2017-Dec-02 06:31N 40°39' W 074°03'0 0.0
2017-Dec-02 06:01N 40°39' W 074°03'0 0.0
2017-Dec-02 05:31N 40°39' W 074°03'0 0.0
2017-Dec-02 05:01N 40°39' W 074°03'0 0.0
2017-Dec-02 04:31N 40°39' W 074°03'0 0.0
2017-Dec-02 04:01N 40°39' W 074°03'0 0.0
2017-Dec-02 03:31N 40°39' W 074°03'0 0.0
2017-Dec-02 03:01N 40°39' W 074°03'0 0.0
2017-Dec-02 02:30N 40°39' W 074°03'0 0.0
2017-Dec-02 02:01N 40°39' W 074°03'0 0.0
2017-Dec-02 01:30N 40°39' W 074°03'0 0.0
2017-Dec-02 01:01N 40°39' W 074°03'0 0.0
2017-Dec-02 00:30N 40°39' W 074°03'0 0.1
2017-Dec-02 00:00N 40°39' W 074°03'0 0.0
2017-Dec-01 23:30N 40°39' W 074°03'0 0.1
2017-Dec-01 23:01N 40°39' W 074°02'0 0.0
2017-Dec-01 22:31N 40°39' W 074°02'0 0.0
2017-Dec-01 22:01N 40°39' W 074°02'0 0.0
2017-Dec-01 21:30N 40°39' W 074°02'0 0.0
2017-Dec-01 21:01N 40°39' W 074°02'0 0.0
2017-Dec-01 20:30N 40°39' W 074°02'0 0.1
2017-Dec-01 20:00N 40°39' W 074°02'0 0.0
2017-Dec-01 19:30N 40°39' W 074°02'0 0.0
2017-Dec-01 19:01N 40°39' W 074°03'0 0.0
2017-Dec-01 18:31N 40°39' W 074°03'0 0.0
2017-Dec-01 18:01N 40°39' W 074°03'0 0.0
2017-Dec-01 17:30N 40°39' W 074°03'  
Track history (hours):
 
Tides and Currents Weather Stations Pressure Air Temp Water Temp Dewpoint Dewpoint Depression Visibility Wind Speed Wind Dir Waves Ship Positions

Evening Tide

Owner: TUG EVENING TIDE CORP, MELVILLE, NY. More information available from US FCC via Universal Licensing System and Coast Guard Vessel Documentation Center.

Last reported at 2017-Dec-11 17:00 UTC. Time now 2017-Dec-13 14:56 UTC.
Position N 40°40' W 074°02'.

Length 43 m; draft 5 m.

Type: Towing. MMSI: 367006620.

Date/timePositionNaut miles runAvg speedWind from/ knotsBaromVisibWave heightAir tempDewpointWater temp
2017-Dec-11 17:00N 40°40' W 074°02'0 0.1
2017-Dec-11 16:30N 40°40' W 074°02'0 0.0
2017-Dec-11 16:00N 40°40' W 074°02'0 0.0
2017-Dec-11 15:31N 40°40' W 074°02'0 0.0
2017-Dec-11 15:00N 40°40' W 074°02'0 0.0
2017-Dec-11 14:30N 40°40' W 074°02'0 0.0
2017-Dec-11 14:00N 40°40' W 074°02'0 0.0
2017-Dec-11 13:30N 40°40' W 074°02'0 0.0
2017-Dec-11 13:00N 40°40' W 074°02'0 0.0
2017-Dec-11 12:30N 40°40' W 074°02'0 0.0
2017-Dec-11 12:00N 40°40' W 074°02'0 0.1
2017-Dec-11 11:30N 40°40' W 074°02'0 0.0
2017-Dec-11 11:00N 40°40' W 074°02'0 0.1
2017-Dec-11 10:30N 40°40' W 074°02'0 0.0
2017-Dec-11 10:00N 40°40' W 074°02'0 0.0
2017-Dec-11 09:30N 40°40' W 074°02'0 0.0
2017-Dec-11 09:00N 40°40' W 074°02'0 0.0
2017-Dec-11 08:30N 40°40' W 074°02'0 0.0
2017-Dec-11 08:00N 40°40' W 074°02'0 0.0
2017-Dec-11 07:30N 40°40' W 074°02'0 0.0
2017-Dec-11 07:00N 40°40' W 074°02'0 0.0
2017-Dec-11 06:30N 40°40' W 074°02'0 0.0
2017-Dec-11 06:00N 40°40' W 074°02'0 0.1
2017-Dec-11 05:30N 40°40' W 074°02'1 2.1
2017-Dec-11 05:00N 40°41' W 074°02'4 8.9
2017-Dec-11 04:30N 40°45' W 074°01'5 9.1
2017-Dec-11 04:00N 40°49' W 073°58'5 9.7
2017-Dec-11 03:30N 40°54' W 073°55'4 0.1
2017-Dec-09 01:45N 40°58' W 073°54'1 5.0
2017-Dec-09 01:29N 40°57' W 073°54'2 4.7
2017-Dec-09 01:00N 40°54' W 073°55'2 4.1
2017-Dec-09 00:30N 40°52' W 073°56'2 3.8
2017-Dec-09 00:00N 40°51' W 073°57'2 3.7
2017-Dec-08 23:30N 40°49' W 073°58'2 3.7
2017-Dec-08 23:00N 40°47' W 073°59'2 4.0
2017-Dec-08 22:30N 40°46' W 074°01'2 4.6
2017-Dec-08 22:00N 40°43' W 074°01'2 4.9
2017-Dec-08 21:30N 40°41' W 074°02'3 5.2
2017-Dec-08 21:00N 40°39' W 074°04'4 7.7
2017-Dec-08 20:30N 40°39' W 074°09'3 5.1
2017-Dec-08 20:00N 40°38' W 074°12'2 4.4
2017-Dec-08 19:30N 40°35' W 074°12'0 0.5
2017-Dec-08 18:55N 40°35' W 074°13'1 2.7
2017-Dec-08 18:29N 40°36' W 074°12'3 6.6
2017-Dec-08 18:00N 40°39' W 074°09'4 8.2
2017-Dec-08 17:30N 40°39' W 074°04'1 2.7
2017-Dec-08 17:00N 40°39' W 074°02'3 5.6
2017-Dec-08 16:30N 40°41' W 074°00'0 0.0
2017-Dec-08 16:00N 40°41' W 074°00'4 7.5
2017-Dec-08 15:30N 40°39' W 074°04'2 4.9
2017-Dec-08 15:00N 40°39' W 074°07'0 0.0
2017-Dec-08 14:29N 40°39' W 074°07'0 0.0
2017-Dec-08 14:00N 40°39' W 074°07'0 0.0
2017-Dec-08 13:30N 40°39' W 074°07'0 0.0
2017-Dec-08 13:00N 40°39' W 074°07'0 1.0
2017-Dec-08 12:30N 40°39' W 074°08'4 7.1
2017-Dec-08 11:59N 40°37' W 074°12'2 4.4
2017-Dec-08 11:30N 40°35' W 074°13'0 0.0
2017-Dec-08 10:58N 40°35' W 074°13'0 0.1
2017-Dec-08 07:07N 40°35' W 074°12'0 1.7
2017-Dec-08 07:00N 40°36' W 074°12'2 4.1
2017-Dec-08 06:30N 40°38' W 074°12'0 0.6
2017-Dec-08 06:00N 40°38' W 074°12'2 3.6
2017-Dec-08 05:20N 40°35' W 074°12'0 0.0
2017-Dec-08 04:55N 40°35' W 074°12'0 0.0
2017-Dec-08 03:39N 40°35' W 074°12'0 0.0
2017-Dec-08 03:25N 40°35' W 074°12'0 0.0
2017-Dec-08 03:00N 40°35' W 074°12'0 0.0
2017-Dec-08 02:06N 40°35' W 074°12'0 0.1
2017-Dec-08 01:58N 40°35' W 074°12'0 0.0
2017-Dec-08 01:30N 40°35' W 074°12'0 0.0
2017-Dec-08 01:00N 40°35' W 074°12'0 0.0
2017-Dec-08 00:27N 40°35' W 074°12'0 0.2
2017-Dec-07 23:52N 40°36' W 074°12'3 8.4
2017-Dec-07 23:30N 40°38' W 074°11'4 7.1
2017-Dec-07 23:00N 40°39' W 074°07'0 0.0
2017-Dec-07 22:30N 40°39' W 074°07'3 5.6
2017-Dec-07 22:00N 40°39' W 074°10'4 7.4
2017-Dec-07 21:27N 40°35' W 074°12'3 6.8
2017-Dec-07 21:00N 40°33' W 074°15'1 1.4
2017-Dec-07 20:05N 40°34' W 074°14'0 4.4
2017-Dec-07 19:58N 40°33' W 074°13'3 6.3
2017-Dec-07 19:30N 40°36' W 074°12'3 6.7
2017-Dec-07 19:00N 40°39' W 074°09'2 3.4
2017-Dec-07 18:29N 40°39' W 074°07'1 2.5
2017-Dec-07 18:00N 40°39' W 074°05'1 1.4
2017-Dec-07 17:30N 40°39' W 074°06'3 6.0
2017-Dec-07 17:00N 40°39' W 074°10'4 7.4
2017-Dec-07 16:30N 40°36' W 074°12'0 0.0
2017-Dec-07 12:25N 40°35' W 074°12'0 0.0
2017-Dec-07 12:00N 40°35' W 074°12'0 0.0
2017-Dec-07 11:30N 40°35' W 074°12'0 0.0
2017-Dec-07 10:59N 40°35' W 074°12'0 0.0
2017-Dec-07 10:30N 40°35' W 074°12'0 0.0
2017-Dec-07 09:59N 40°35' W 074°12'0 0.0
2017-Dec-07 09:30N 40°35' W 074°12'0 0.0
2017-Dec-07 08:59N 40°35' W 074°12'0 0.0
2017-Dec-07 08:30N 40°35' W 074°12'0 0.0
2017-Dec-07 08:00N 40°35' W 074°12'0 0.0
2017-Dec-07 07:30N 40°35' W 074°12'0 0.0
2017-Dec-07 07:00N 40°35' W 074°12'0 0.0
2017-Dec-07 06:30N 40°35' W 074°12'0 0.0
2017-Dec-07 05:58N 40°35' W 074°12'0 0.0
2017-Dec-07 05:22N 40°35' W 074°12'0 0.0
2017-Dec-07 05:00N 40°35' W 074°12'0 0.0
2017-Dec-07 04:30N 40°35' W 074°12'0 0.0
2017-Dec-07 04:00N 40°35' W 074°12'1 1.1
2017-Dec-07 03:27N 40°35' W 074°13'3 6.5
2017-Dec-07 02:59N 40°33' W 074°15'0 0.2
2017-Dec-07 02:28N 40°33' W 074°15'3 5.6
2017-Dec-07 01:59N 40°34' W 074°13'1 0.2
2017-Dec-06 21:12N 40°35' W 074°13'0 0.1
2017-Dec-06 21:00N 40°35' W 074°12'  
2017-Dec-04 10:31N 40°39' W 074°02'0 0.0
2017-Dec-04 10:00N 40°39' W 074°03'0 0.0
2017-Dec-04 09:30N 40°39' W 074°03'0 0.2
2017-Dec-04 09:01N 40°39' W 074°03'0 0.1
2017-Dec-04 08:30N 40°39' W 074°03'0 0.0
2017-Dec-04 08:00N 40°39' W 074°03'0 0.0
2017-Dec-04 07:31N 40°39' W 074°03'0 0.0
2017-Dec-04 07:00N 40°39' W 074°03'0 0.0
2017-Dec-04 06:30N 40°39' W 074°03'0 0.0
2017-Dec-04 06:00N 40°39' W 074°03'0 0.0
2017-Dec-04 05:30N 40°39' W 074°03'0 0.0
2017-Dec-04 05:00N 40°39' W 074°03'0 0.0
2017-Dec-04 04:30N 40°39' W 074°03'0 0.0
2017-Dec-04 04:00N 40°39' W 074°03'0 0.1
2017-Dec-04 03:30N 40°39' W 074°03'0 0.0
2017-Dec-04 03:00N 40°39' W 074°03'0 0.0
2017-Dec-04 02:30N 40°39' W 074°03'0 0.2
2017-Dec-04 02:00N 40°39' W 074°03'0 0.0
2017-Dec-04 01:30N 40°39' W 074°03'0 0.0
2017-Dec-04 01:00N 40°39' W 074°03'0 0.0
2017-Dec-04 00:30N 40°39' W 074°03'0 0.1
2017-Dec-04 00:00N 40°39' W 074°03'0 0.0
2017-Dec-03 23:30N 40°39' W 074°03'0 0.0
2017-Dec-03 23:01N 40°39' W 074°03'0 0.0
2017-Dec-03 22:30N 40°39' W 074°03'0 0.0
2017-Dec-03 22:00N 40°39' W 074°03'0 0.1
2017-Dec-03 21:30N 40°39' W 074°03'0 0.1
2017-Dec-03 21:01N 40°39' W 074°03'0 0.0
2017-Dec-03 20:30N 40°39' W 074°03'0 0.0
2017-Dec-03 20:00N 40°39' W 074°03'0 0.0
2017-Dec-03 19:30N 40°39' W 074°03'0 0.0
2017-Dec-03 19:00N 40°39' W 074°03'0 0.0
2017-Dec-03 18:30N 40°39' W 074°03'0 0.0
2017-Dec-03 18:00N 40°39' W 074°03'0 0.0
2017-Dec-03 17:30N 40°39' W 074°03'0 0.0
2017-Dec-03 17:00N 40°39' W 074°03'0 0.0
2017-Dec-03 16:31N 40°39' W 074°03'0 0.1
2017-Dec-03 16:00N 40°39' W 074°03'0 0.0
2017-Dec-03 15:30N 40°39' W 074°03'0 0.0
2017-Dec-03 15:00N 40°39' W 074°03'0 0.0
2017-Dec-03 14:30N 40°39' W 074°03'0 0.1
2017-Dec-03 14:00N 40°39' W 074°03'0 0.1
2017-Dec-03 13:30N 40°39' W 074°03'0 0.1
2017-Dec-03 13:00N 40°39' W 074°03'0 0.1
2017-Dec-03 12:30N 40°39' W 074°03'0 0.0
2017-Dec-03 12:00N 40°39' W 074°03'0 0.0
2017-Dec-03 11:30N 40°39' W 074°03'0 0.0
2017-Dec-03 11:00N 40°39' W 074°03'0 0.1
2017-Dec-03 10:30N 40°39' W 074°03'0 0.0
2017-Dec-03 10:00N 40°39' W 074°03'0 0.0
2017-Dec-03 09:30N 40°39' W 074°03'0 0.0
2017-Dec-03 09:00N 40°39' W 074°03'0 0.1
2017-Dec-03 08:30N 40°39' W 074°03'0 0.2
2017-Dec-03 08:00N 40°39' W 074°03'0 0.1
2017-Dec-03 07:30N 40°39' W 074°03'0 0.0
2017-Dec-03 07:00N 40°39' W 074°03'0 0.0
2017-Dec-03 06:30N 40°39' W 074°03'0 0.0
2017-Dec-03 06:00N 40°39' W 074°03'0 0.0
2017-Dec-03 05:30N 40°39' W 074°03'0 0.0
2017-Dec-03 05:00N 40°39' W 074°03'0 0.0
2017-Dec-03 04:30N 40°39' W 074°03'0 0.0
2017-Dec-03 04:00N 40°39' W 074°03'0 0.1
2017-Dec-03 03:30N 40°39' W 074°03'0 0.0
2017-Dec-03 03:00N 40°39' W 074°03'0 0.0
2017-Dec-03 02:30N 40°39' W 074°03'0 0.1
2017-Dec-03 02:00N 40°39' W 074°03'0 0.1
2017-Dec-03 01:30N 40°39' W 074°03'0 0.0
2017-Dec-03 01:00N 40°39' W 074°03'0 0.0
2017-Dec-03 00:30N 40°39' W 074°03'0 0.0
2017-Dec-03 00:00N 40°39' W 074°03'0 0.0
2017-Dec-02 23:30N 40°39' W 074°03'0 0.0
2017-Dec-02 23:00N 40°39' W 074°03'0 0.0
2017-Dec-02 22:30N 40°39' W 074°03'0 0.0
2017-Dec-02 22:00N 40°39' W 074°03'0 0.0
2017-Dec-02 21:30N 40°39' W 074°02'0 0.0
2017-Dec-02 21:00N 40°39' W 074°03'0 0.0
2017-Dec-02 20:30N 40°39' W 074°03'0 0.2
2017-Dec-02 20:00N 40°39' W 074°03'0 0.0
2017-Dec-02 19:30N 40°39' W 074°03'0 0.0
2017-Dec-02 19:00N 40°39' W 074°03'0 0.0
2017-Dec-02 18:30N 40°39' W 074°03'0 0.0
2017-Dec-02 18:01N 40°39' W 074°03'0 0.0
2017-Dec-02 17:30N 40°39' W 074°03'0 0.0
2017-Dec-02 17:00N 40°39' W 074°03'0 0.0
2017-Dec-02 16:30N 40°39' W 074°03'0 0.0
2017-Dec-02 16:00N 40°39' W 074°03'0 0.0
2017-Dec-02 15:30N 40°39' W 074°03'0 0.0
2017-Dec-02 15:00N 40°39' W 074°03'0 0.0
2017-Dec-02 14:30N 40°39' W 074°03'0 0.0
2017-Dec-02 14:00N 40°39' W 074°03'0 0.0
2017-Dec-02 13:30N 40°39' W 074°03'0 0.1
2017-Dec-02 13:00N 40°39' W 074°03'0 0.1
2017-Dec-02 12:31N 40°39' W 074°03'0 0.0
2017-Dec-02 12:00N 40°39' W 074°03'0 0.0
2017-Dec-02 11:31N 40°39' W 074°03'0 0.0
2017-Dec-02 11:00N 40°39' W 074°03'0 0.0
2017-Dec-02 10:31N 40°39' W 074°03'0 0.0
2017-Dec-02 10:01N 40°39' W 074°03'0 0.0
2017-Dec-02 09:31N 40°39' W 074°03'0 0.0
2017-Dec-02 09:00N 40°39' W 074°02'0 0.0
2017-Dec-02 08:31N 40°39' W 074°02'0 0.1
2017-Dec-02 08:01N 40°39' W 074°03'0 0.1
2017-Dec-02 07:31N 40°39' W 074°03'0 0.1
2017-Dec-02 07:01N 40°39' W 074°03'0 0.0
2017-Dec-02 06:31N 40°39' W 074°03'0 0.0
2017-Dec-02 06:01N 40°39' W 074°03'0 0.0
2017-Dec-02 05:31N 40°39' W 074°03'0 0.0
2017-Dec-02 05:01N 40°39' W 074°03'0 0.0
2017-Dec-02 04:31N 40°39' W 074°03'0 0.0
2017-Dec-02 04:01N 40°39' W 074°03'0 0.0
2017-Dec-02 03:31N 40°39' W 074°03'0 0.0
2017-Dec-02 03:01N 40°39' W 074°03'0 0.0
2017-Dec-02 02:30N 40°39' W 074°03'0 0.0
2017-Dec-02 02:01N 40°39' W 074°03'0 0.0
2017-Dec-02 01:30N 40°39' W 074°03'0 0.0
2017-Dec-02 01:01N 40°39' W 074°03'0 0.0
2017-Dec-02 00:30N 40°39' W 074°03'0 0.1
2017-Dec-02 00:00N 40°39' W 074°03'0 0.0
2017-Dec-01 23:30N 40°39' W 074°03'0 0.1
2017-Dec-01 23:01N 40°39' W 074°02'0 0.0
2017-Dec-01 22:31N 40°39' W 074°02'0 0.0
2017-Dec-01 22:01N 40°39' W 074°02'0 0.0
2017-Dec-01 21:30N 40°39' W 074°02'0 0.0
2017-Dec-01 21:01N 40°39' W 074°02'0 0.0
2017-Dec-01 20:30N 40°39' W 074°02'0 0.1
2017-Dec-01 20:00N 40°39' W 074°02'0 0.0
2017-Dec-01 19:30N 40°39' W 074°02'0 0.0
2017-Dec-01 19:01N 40°39' W 074°03'0 0.0
2017-Dec-01 18:31N 40°39' W 074°03'0 0.0
2017-Dec-01 18:01N 40°39' W 074°03'0 0.0
2017-Dec-01 17:30N 40°39' W 074°03'  

Dump ship's entire track history